SLCO/CIJ METAR and TAF weather

Enter ICAO airport designator
Station Type Date Time Source
SLCO METAR 2019/02/20 17:00 UTC NOAA

SLCO 201700Z 36008KT 6000 -RA SCT004 OVC080 24/23 Q1014


Station Type Date Time Source
SLCO Decoded METAR 2019/02/20 17:00 UTC NOAA

Cobija, Bolivia (SLCO) 11-02S 068-47W 260M
Feb 20, 2019 - 12:00 PM EST / 2019.02.20 1700 UTC
Wind: from the N (360 degrees) at 9 MPH (8 KT):0
Visibility: 3 mile(s):0
Sky conditions: overcast
Weather: light rain
Temperature: 75 F (24 C)
Dew Point: 73 F (23 C)
Relative Humidity: 94%
Pressure (altimeter): 29.94 in. Hg (1014 hPa)
ob: SLCO 201700Z 36008KT 6000 -RA SCT004 OVC080 24/23 Q1014
cycle: 17

Station Type Date Time Source
SLCO TAF 2019/02/20 18:36 UTC NOAA

TAF TAF SLCO 201600Z 2018/2118 33010KT 9999 SCT015 FEW025CB BKN080 TX32/ 2020Z TN23/2110Z
TEMPO 2019/2021 7000 SHRA
BECMG 2023/2102 00000KT SCT015


Example: see airport list